Time;durP1;ratioP1;P1;durP2;ratioP2;P2;SDS_P1;SDS_P2;PMS_P1;PMS_P2;Temp;Humidity;BMP_temperature;BMP_pressure;BME280_temperature;BME280_humidity;BME280_pressure;Samples;Min_cycle;Max_cycle;Signal;HPM_P1;HPM_P2
2023/07/17 00:02:19;;;;;;;10.45;3.22;;;19.40;87.20;;;;;;5093726;28;20133;-71
2023/07/17 00:04:45;;;;;;;8.98;2.60;;;19.40;88.00;;;;;;5075768;28;20127;-72
2023/07/17 00:07:10;;;;;;;7.43;2.40;;;19.40;89.40;;;;;;5093170;28;20474;-71
2023/07/17 00:09:36;;;;;;;6.25;2.30;;;19.30;88.10;;;;;;5093043;28;20040;-71
2023/07/17 00:12:03;;;;;;;7.13;2.40;;;19.30;87.70;;;;;;5093610;28;20044;-71
2023/07/17 00:14:29;;;;;;;5.47;2.10;;;19.30;87.70;;;;;;5093256;28;20122;-72
2023/07/17 00:16:54;;;;;;;5.38;2.30;;;19.30;87.50;;;;;;5072217;28;20140;-71
2023/07/17 00:19:20;;;;;;;6.65;2.10;;;19.30;87.50;;;;;;5086601;28;20051;-71
2023/07/17 00:21:45;;;;;;;7.28;2.17;;;19.20;87.50;;;;;;5093429;28;20036;-71
2023/07/17 00:24:11;;;;;;;6.68;2.50;;;19.20;87.80;;;;;;5093064;28;20051;-71
2023/07/17 00:26:40;;;;;;;7.43;2.25;;;19.20;88.10;;;;;;5093056;28;20486;-71
2023/07/17 00:29:28;;;;;;;6.07;2.30;;;19.20;87.90;;;;;;5092715;28;20040;-71
2023/07/17 00:31:57;;;;;;;11.13;3.05;;;19.20;88.10;;;;;;5092673;28;20440;-71
2023/07/17 00:34:23;;;;;;;7.75;2.40;;;19.20;89.90;;;;;;5093087;28;20052;-71
2023/07/17 00:36:49;;;;;;;8.93;2.13;;;19.20;89.60;;;;;;5075542;28;20425;-72
2023/07/17 00:39:15;;;;;;;6.63;2.10;;;19.10;89.40;;;;;;5092109;28;20079;-72
2023/07/17 00:41:43;;;;;;;8.75;2.60;;;19.10;89.30;;;;;;5093336;28;20514;-72
2023/07/17 00:44:09;;;;;;;5.97;2.03;;;19.10;90.00;;;;;;5093061;28;20101;-72
2023/07/17 00:46:35;;;;;;;10.35;2.83;;;19.00;90.20;;;;;;5092844;28;20048;-72
2023/07/17 00:49:03;;;;;;;7.35;2.30;;;19.00;90.90;;;;;;5092711;28;20056;-72
2023/07/17 00:51:30;;;;;;;6.22;2.13;;;18.90;90.90;;;;;;5092776;28;20040;-72
2023/07/17 00:54:00;;;;;;;6.25;2.08;;;18.90;91.10;;;;;;5092601;28;20044;-72
2023/07/17 00:56:28;;;;;;;10.02;2.70;;;18.80;90.80;;;;;;5092466;28;20055;-71
2023/07/17 00:58:54;;;;;;;7.40;2.38;;;18.80;91.50;;;;;;5092814;28;20044;-71
2023/07/17 01:01:23;;;;;;;6.00;2.10;;;18.80;91.30;;;;;;5092047;28;20048;-72
2023/07/17 01:03:55;;;;;;;9.50;2.58;;;18.70;91.30;;;;;;5092472;28;20482;-72
2023/07/17 01:06:23;;;;;;;7.05;2.33;;;18.70;91.50;;;;;;5092901;28;20059;-71
2023/07/17 01:08:48;;;;;;;6.25;2.20;;;18.70;91.50;;;;;;5092592;28;20119;-71
2023/07/17 01:11:14;;;;;;;7.93;2.47;;;18.70;91.20;;;;;;5074322;28;20517;-71
2023/07/17 01:13:44;;;;;;;6.38;2.15;;;18.60;91.20;;;;;;5092937;28;20043;-72
2023/07/17 01:16:10;;;;;;;6.03;2.00;;;18.60;91.00;;;;;;5092165;28;20047;-71
2023/07/17 01:18:35;;;;;;;6.07;1.75;;;18.60;90.80;;;;;;5092461;28;20028;-71
2023/07/17 01:21:03;;;;;;;5.45;1.95;;;18.60;90.70;;;;;;5092414;28;20546;-72
2023/07/17 01:23:29;;;;;;;6.80;2.35;;;18.70;90.50;;;;;;5092318;28;20405;-71
2023/07/17 01:25:54;;;;;;;6.30;2.00;;;18.60;90.40;;;;;;5092569;28;20048;-72
2023/07/17 01:28:20;;;;;;;6.38;2.00;;;18.70;90.50;;;;;;5076092;28;20048;-72
2023/07/17 01:30:46;;;;;;;7.95;2.13;;;18.60;90.50;;;;;;5092154;28;20154;-71
2023/07/17 01:33:11;;;;;;;6.35;2.05;;;18.60;90.60;;;;;;5092147;28;20036;-71
2023/07/17 01:35:37;;;;;;;5.90;1.88;;;18.60;90.50;;;;;;5070773;28;20060;-72
2023/07/17 01:38:03;;;;;;;4.65;1.77;;;18.60;90.70;;;;;;5059779;28;20044;-72
2023/07/17 01:40:28;;;;;;;5.25;1.90;;;18.60;90.40;;;;;;5092201;28;20127;-71
2023/07/17 01:42:54;;;;;;;4.57;1.77;;;18.60;90.40;;;;;;5092791;28;20048;-72
2023/07/17 01:45:19;;;;;;;5.10;1.67;;;18.50;90.60;;;;;;5092471;28;20686;-72
2023/07/17 01:47:49;;;;;;;5.65;1.70;;;18.40;90.60;;;;;;5092560;28;20493;-72
2023/07/17 01:50:14;;;;;;;5.13;1.75;;;18.40;90.60;;;;;;5091687;28;20085;-72
2023/07/17 01:52:40;;;;;;;5.63;1.98;;;18.40;90.50;;;;;;5092278;28;20452;-71
2023/07/17 01:55:06;;;;;;;5.80;1.88;;;18.40;90.50;;;;;;5074458;28;20504;-71
2023/07/17 01:57:32;;;;;;;5.20;1.70;;;18.40;90.70;;;;;;5092347;28;20123;-72
2023/07/17 01:59:58;;;;;;;5.20;1.77;;;18.40;90.60;;;;;;5070715;28;20425;-71
2023/07/17 02:02:24;;;;;;;8.55;1.90;;;18.40;90.60;;;;;;5088935;28;20048;-72
2023/07/17 02:04:50;;;;;;;6.70;1.85;;;18.30;90.70;;;;;;5077809;28;20402;-72
2023/07/17 02:07:15;;;;;;;7.65;1.80;;;18.30;90.70;;;;;;5095551;28;20094;-72
2023/07/17 02:09:41;;;;;;;6.15;1.75;;;18.30;90.50;;;;;;5095303;28;20047;-72
2023/07/17 02:12:07;;;;;;;4.82;1.77;;;18.30;90.50;;;;;;5095060;28;20446;-72
2023/07/17 02:14:32;;;;;;;5.00;1.77;;;18.20;90.60;;;;;;5077989;28;20046;-71
2023/07/17 02:16:58;;;;;;;6.68;2.00;;;18.30;90.70;;;;;;5095612;28;20047;-71
2023/07/17 02:19:24;;;;;;;7.93;2.05;;;18.20;90.80;;;;;;5095722;28;20044;-72
2023/07/17 02:21:49;;;;;;;4.53;1.55;;;18.20;90.90;;;;;;5095304;28;20510;-72
2023/07/17 02:24:15;;;;;;;4.57;1.60;;;18.20;90.90;;;;;;5095593;28;20040;-71
2023/07/17 02:26:40;;;;;;;5.45;1.67;;;18.10;90.90;;;;;;5094891;28;20098;-72
2023/07/17 02:29:06;;;;;;;6.95;1.88;;;18.10;90.90;;;;;;5095190;28;20044;-73
2023/07/17 02:31:32;;;;;;;4.70;1.70;;;18.10;91.00;;;;;;5094387;28;20048;-72
2023/07/17 02:33:57;;;;;;;4.60;1.60;;;18.00;90.90;;;;;;5076237;28;20036;-72
2023/07/17 02:36:23;;;;;;;5.63;1.70;;;18.00;90.80;;;;;;5094943;28;20070;-72
2023/07/17 02:38:48;;;;;;;6.13;1.65;;;18.00;90.90;;;;;;5095349;28;20048;-72
2023/07/17 02:41:15;;;;;;;5.88;1.50;;;18.00;90.80;;;;;;5076663;28;20138;-72
2023/07/17 02:43:40;;;;;;;6.53;1.75;;;18.00;90.90;;;;;;5094165;28;20054;-72
2023/07/17 02:46:06;;;;;;;5.57;1.55;;;18.00;90.90;;;;;;5095265;28;20118;-72
2023/07/17 02:48:32;;;;;;;6.45;1.80;;;17.90;90.90;;;;;;5094779;28;20052;-71
2023/07/17 02:50:57;;;;;;;6.75;1.80;;;17.90;90.90;;;;;;5095174;28;20044;-72
2023/07/17 02:53:23;;;;;;;6.20;1.70;;;17.90;91.00;;;;;;5077000;28;20048;-72
2023/07/17 02:55:48;;;;;;;6.30;1.52;;;17.80;91.00;;;;;;5077192;28;20036;-72
2023/07/17 02:58:17;;;;;;;4.32;1.75;;;17.80;91.00;;;;;;5094853;28;20044;-72
2023/07/17 03:00:44;;;;;;;7.22;1.90;;;17.80;91.10;;;;;;5094925;28;20398;-71
2023/07/17 03:03:10;;;;;;;5.68;1.70;;;17.80;91.20;;;;;;5094666;28;20047;-71
2023/07/17 03:05:36;;;;;;;7.22;2.10;;;17.80;91.10;;;;;;5095271;28;20044;-71
2023/07/17 03:08:02;;;;;;;6.70;1.63;;;17.70;91.20;;;;;;5095115;28;20402;-71
2023/07/17 03:10:29;;;;;;;7.00;1.95;;;17.70;91.40;;;;;;5094534;28;20228;-72
2023/07/17 03:12:55;;;;;;;5.03;1.52;;;17.60;91.50;;;;;;5088151;28;20123;-72
2023/07/17 03:15:21;;;;;;;4.97;1.88;;;17.60;91.20;;;;;;5094220;28;20170;-71
2023/07/17 03:17:46;;;;;;;6.63;1.90;;;17.60;91.30;;;;;;5094690;28;20149;-71
2023/07/17 03:20:13;;;;;;;5.03;1.70;;;17.60;91.30;;;;;;5095120;28;20051;-71
2023/07/17 03:22:39;;;;;;;5.72;1.90;;;17.50;91.70;;;;;;5094365;28;20126;-71
2023/07/17 03:25:06;;;;;;;6.70;1.88;;;17.50;91.40;;;;;;5094208;28;20070;-71
2023/07/17 03:27:32;;;;;;;6.25;1.92;;;17.50;91.50;;;;;;5073086;28;20044;-71
2023/07/17 03:29:58;;;;;;;7.13;1.90;;;17.40;91.50;;;;;;5074320;28;20545;-72
2023/07/17 03:32:23;;;;;;;6.10;1.92;;;17.40;91.70;;;;;;5093282;28;20170;-71
2023/07/17 03:34:49;;;;;;;5.70;1.80;;;17.40;91.70;;;;;;5094810;28;20101;-71
2023/07/17 03:37:14;;;;;;;8.80;2.55;;;17.40;91.60;;;;;;5094379;28;20399;-71
2023/07/17 03:39:40;;;;;;;10.30;2.45;;;17.40;91.80;;;;;;5094332;28;20047;-71
2023/07/17 03:42:10;;;;;;;5.65;1.98;;;17.30;91.90;;;;;;5093496;28;20055;-71
2023/07/17 03:44:38;;;;;;;7.55;1.90;;;17.30;91.90;;;;;;5094137;28;20052;-71
2023/07/17 03:47:05;;;;;;;6.22;1.60;;;17.30;92.00;;;;;;5093520;28;20056;-71
2023/07/17 03:49:31;;;;;;;5.90;1.98;;;17.20;91.90;;;;;;5094222;28;20059;-71
2023/07/17 03:51:58;;;;;;;5.45;1.70;;;17.20;91.90;;;;;;5094140;28;20048;-71
2023/07/17 03:54:24;;;;;;;5.75;1.73;;;17.20;91.90;;;;;;5094317;28;20539;-71
2023/07/17 03:56:50;;;;;;;6.03;1.65;;;17.20;91.70;;;;;;5075627;28;20141;-71
2023/07/17 03:59:15;;;;;;;6.90;1.98;;;17.10;91.70;;;;;;5093982;28;20112;-72
2023/07/17 04:01:41;;;;;;;7.05;2.33;;;17.10;91.90;;;;;;5093126;28;20058;-71
2023/07/17 04:04:07;;;;;;;8.95;2.05;;;17.10;91.90;;;;;;5094226;28;20119;-72
2023/07/17 04:06:32;;;;;;;6.65;1.70;;;17.00;91.80;;;;;;5093565;28;20474;-71
2023/07/17 04:08:58;;;;;;;7.55;1.90;;;17.10;91.90;;;;;;5094018;28;20036;-71
2023/07/17 04:11:24;;;;;;;8.80;1.75;;;17.00;92.20;;;;;;5093576;28;20036;-71
2023/07/17 04:13:53;;;;;;;7.40;1.80;;;17.00;92.00;;;;;;5093879;28;20044;-71
2023/07/17 04:16:20;;;;;;;4.93;1.65;;;17.00;92.00;;;;;;5092871;28;20086;-71
2023/07/17 04:18:46;;;;;;;7.82;2.45;;;17.00;92.10;;;;;;5092846;28;20180;-72
2023/07/17 04:21:12;;;;;;;6.32;2.20;;;16.90;92.10;;;;;;5069307;28;20060;-72
2023/07/17 04:23:37;;;;;;;7.18;1.83;;;16.90;92.00;;;;;;5093264;28;20393;-71
2023/07/17 04:26:03;;;;;;;4.75;1.58;;;16.90;91.90;;;;;;5092586;28;20036;-72
2023/07/17 04:28:29;;;;;;;5.25;1.80;;;16.90;91.90;;;;;;5092638;28;20055;-72
2023/07/17 04:30:55;;;;;;;7.35;1.80;;;16.90;92.00;;;;;;5090931;28;20044;-72
2023/07/17 04:33:23;;;;;;;11.57;2.45;;;16.90;92.00;;;;;;5071583;28;20058;-71
2023/07/17 04:35:52;;;;;;;5.70;1.90;;;16.80;92.40;;;;;;5092753;28;20040;-72
2023/07/17 04:38:17;;;;;;;8.32;2.00;;;16.80;92.20;;;;;;5091715;28;20169;-72
2023/07/17 04:40:43;;;;;;;6.40;1.75;;;16.80;92.30;;;;;;5092443;28;20549;-72
2023/07/17 04:43:09;;;;;;;5.70;1.92;;;16.80;92.20;;;;;;5092686;28;20036;-72
2023/07/17 04:45:39;;;;;;;5.32;1.88;;;16.80;92.10;;;;;;5074683;28;20047;-72
2023/07/17 04:48:05;;;;;;;8.13;2.03;;;16.70;92.00;;;;;;5093519;28;20083;-72
2023/07/17 04:50:31;;;;;;;6.28;1.70;;;16.70;91.90;;;;;;5093152;28;20490;-71
2023/07/17 04:52:56;;;;;;;11.23;2.38;;;16.70;91.90;;;;;;5092745;28;20047;-71
2023/07/17 04:55:23;;;;;;;5.43;1.90;;;16.70;91.80;;;;;;5075369;28;20044;-72
2023/07/17 04:57:48;;;;;;;8.82;2.35;;;16.70;91.90;;;;;;5093083;28;20051;-72
2023/07/17 05:00:15;;;;;;;7.15;1.95;;;16.70;92.30;;;;;;5093011;28;20043;-71
2023/07/17 05:02:40;;;;;;;12.65;2.30;;;16.70;92.40;;;;;;5093037;28;20059;-71
2023/07/17 05:05:06;;;;;;;5.43;1.83;;;16.80;92.80;;;;;;5092823;28;20040;-71
2023/07/17 05:07:32;;;;;;;9.45;2.45;;;16.70;92.80;;;;;;5092570;28;20043;-72
2023/07/17 05:09:57;;;;;;;8.65;1.88;;;16.80;93.00;;;;;;5092290;28;20040;-72
2023/07/17 05:12:23;;;;;;;9.00;2.65;;;16.80;93.00;;;;;;5092231;28;20040;-71
2023/07/17 05:14:49;;;;;;;8.13;2.33;;;16.70;93.30;;;;;;5092752;28;20088;-72
2023/07/17 05:17:14;;;;;;;8.30;2.20;;;16.70;93.40;;;;;;5089243;28;20048;-72
2023/07/17 05:19:40;;;;;;;12.23;3.08;;;16.80;93.50;;;;;;5091950;28;20048;-71
2023/07/17 05:22:05;;;;;;;7.15;2.30;;;16.80;93.80;;;;;;5092482;28;20036;-71
2023/07/17 05:24:32;;;;;;;7.15;2.40;;;16.80;93.70;;;;;;5092251;28;20101;-72
2023/07/17 05:26:57;;;;;;;7.78;2.28;;;16.80;93.50;;;;;;5085016;28;20133;-72
2023/07/17 05:29:23;;;;;;;8.82;2.30;;;16.80;93.70;;;;;;5092398;28;20071;-72
2023/07/17 05:31:49;;;;;;;11.00;2.67;;;16.80;93.50;;;;;;5092155;28;20389;-72
2023/07/17 05:34:14;;;;;;;11.02;2.90;;;16.80;93.50;;;;;;5092825;28;20133;-72
2023/07/17 05:36:40;;;;;;;10.13;2.88;;;16.80;93.70;;;;;;5091981;28;20062;-72
2023/07/17 05:39:05;;;;;;;9.45;2.53;;;16.80;93.70;;;;;;5080725;28;20037;-72
2023/07/17 05:41:32;;;;;;;12.63;3.00;;;16.80;93.90;;;;;;5091768;28;20048;-72
2023/07/17 05:43:58;;;;;;;11.10;2.97;;;16.80;94.00;;;;;;5096159;28;20048;-72
2023/07/17 05:46:24;;;;;;;11.20;3.08;;;16.80;94.20;;;;;;5096699;28;20060;-72
2023/07/17 05:48:50;;;;;;;11.55;2.63;;;16.80;94.20;;;;;;5096411;28;20048;-72
2023/07/17 05:51:15;;;;;;;13.50;3.42;;;16.80;94.00;;;;;;5078470;28;20040;-73
2023/07/17 05:53:41;;;;;;;10.15;2.80;;;16.80;94.30;;;;;;5077730;28;20409;-72
2023/07/17 05:56:06;;;;;;;13.95;3.03;;;16.80;94.20;;;;;;5095983;28;20048;-73
2023/07/17 05:58:32;;;;;;;9.05;3.00;;;16.80;94.20;;;;;;5098567;28;20126;-72
2023/07/17 06:00:58;;;;;;;16.33;3.85;;;16.80;94.20;;;;;;5096594;28;20039;-72
2023/07/17 06:03:24;;;;;;;12.85;3.78;;;16.80;94.60;;;;;;5095385;28;20036;-72
2023/07/17 06:05:49;;;;;;;9.45;2.83;;;16.80;95.00;;;;;;5095506;28;20126;-73
2023/07/17 06:08:15;;;;;;;12.05;3.13;;;16.90;94.60;;;;;;5096060;28;20051;-72
2023/07/17 06:10:46;;;;;;;22.98;4.18;;;16.90;94.60;;;;;;5077811;28;20040;-72
2023/07/17 06:13:12;;;;;;;14.25;3.38;;;16.90;94.80;;;;;;5096223;28;20048;-72
2023/07/17 06:15:39;;;;;;;11.73;3.25;;;16.90;94.90;;;;;;5061171;28;20036;-72
2023/07/17 06:18:05;;;;;;;13.00;3.20;;;17.00;94.60;;;;;;5096790;28;20032;-72
2023/07/17 06:20:30;;;;;;;12.45;3.72;;;17.00;94.60;;;;;;5097369;28;20063;-72
2023/07/17 06:22:56;;;;;;;13.60;3.40;;;17.00;94.60;;;;;;5091123;28;20474;-72
2023/07/17 06:25:21;;;;;;;10.00;2.83;;;17.10;94.60;;;;;;5095171;28;20040;-72
2023/07/17 06:27:47;;;;;;;9.32;3.20;;;17.10;94.20;;;;;;5095274;28;20048;-73
2023/07/17 06:30:15;;;;;;;13.52;3.30;;;17.10;94.30;;;;;;5095112;28;20500;-72
2023/07/17 06:32:41;;;;;;;10.80;3.40;;;17.20;94.40;;;;;;5094673;28;20127;-72
2023/07/17 06:35:08;;;;;;;9.95;4.05;;;17.20;94.40;;;;;;5095140;28;20127;-72
2023/07/17 06:37:34;;;;;;;10.13;3.17;;;17.20;94.70;;;;;;5089433;28;20044;-72
2023/07/17 06:40:00;;;;;;;10.57;3.47;;;17.20;94.40;;;;;;5095229;28;20051;-72
2023/07/17 06:42:25;;;;;;;12.32;4.05;;;17.30;94.70;;;;;;5077888;28;20130;-72
2023/07/17 06:44:51;;;;;;;13.35;3.90;;;17.30;94.90;;;;;;5095079;28;20097;-72
2023/07/17 06:47:17;;;;;;;11.60;3.58;;;17.30;95.00;;;;;;5094611;28;20052;-72
2023/07/17 06:49:43;;;;;;;8.98;3.33;;;17.40;94.90;;;;;;5093995;28;20052;-72
2023/07/17 06:52:09;;;;;;;12.23;3.90;;;17.40;94.70;;;;;;5095542;28;20044;-72
2023/07/17 06:54:34;;;;;;;10.93;3.58;;;17.50;94.70;;;;;;5094864;28;20127;-72
2023/07/17 06:57:00;;;;;;;13.02;4.20;;;17.50;94.20;;;;;;5095464;28;20546;-71
2023/07/17 06:59:28;;;;;;;12.55;3.90;;;17.60;94.40;;;;;;5094959;28;20405;-72
2023/07/17 07:01:54;;;;;;;13.57;4.53;;;17.60;94.30;;;;;;5094435;28;20055;-72
2023/07/17 07:04:20;;;;;;;16.40;4.78;;;17.70;94.50;;;;;;5094500;28;20052;-72
2023/07/17 07:06:46;;;;;;;13.95;4.93;;;17.80;95.20;;;;;;5094848;28;20170;-72
2023/07/17 07:09:12;;;;;;;11.85;4.20;;;17.80;94.90;;;;;;5094423;28;20048;-72
2023/07/17 07:11:37;;;;;;;21.17;5.38;;;17.90;94.70;;;;;;5094817;28;20371;-71
2023/07/17 07:14:03;;;;;;;13.52;4.70;;;18.00;94.80;;;;;;5094344;28;20095;-72
2023/07/17 07:16:28;;;;;;;15.15;4.80;;;18.00;94.60;;;;;;5093311;28;20044;-72
2023/07/17 07:18:54;;;;;;;18.63;4.28;;;18.00;94.40;;;;;;5094323;28;20055;-72
2023/07/17 07:21:20;;;;;;;11.65;4.72;;;18.10;94.40;;;;;;5075554;28;20106;-72
2023/07/17 07:23:45;;;;;;;12.20;4.30;;;18.20;94.30;;;;;;5094758;28;20032;-71
2023/07/17 07:26:11;;;;;;;13.07;4.82;;;18.20;94.10;;;;;;5094833;28;20075;-72
2023/07/17 07:28:37;;;;;;;14.23;4.50;;;18.30;94.10;;;;;;5094808;28;20084;-71
2023/07/17 07:31:02;;;;;;;13.60;4.57;;;18.30;94.10;;;;;;5094148;28;20032;-72
2023/07/17 07:33:28;;;;;;;14.48;4.90;;;18.40;93.90;;;;;;5093579;28;20051;-71
2023/07/17 07:35:54;;;;;;;12.88;4.25;;;18.50;93.80;;;;;;5075469;28;20083;-72
2023/07/17 07:38:20;;;;;;;14.00;4.50;;;18.50;94.00;;;;;;5092775;28;20064;-71
2023/07/17 07:40:45;;;;;;;12.05;4.38;;;18.60;93.80;;;;;;5094622;28;20047;-72
2023/07/17 07:43:11;;;;;;;15.55;4.57;;;18.70;93.50;;;;;;5093850;28;20040;-72
2023/07/17 07:45:37;;;;;;;13.57;5.00;;;18.70;93.30;;;;;;5093746;28;20036;-71
2023/07/17 07:48:03;;;;;;;14.70;5.00;;;18.80;93.40;;;;;;5093268;28;20048;-71
2023/07/17 07:50:28;;;;;;;10.88;4.18;;;18.80;93.30;;;;;;5093906;28;20117;-72
2023/07/17 07:52:55;;;;;;;16.70;5.35;;;18.90;93.10;;;;;;5075372;28;20075;-72
2023/07/17 07:55:21;;;;;;;17.10;5.00;;;18.80;93.00;;;;;;5094253;28;20047;-71
2023/07/17 07:57:49;;;;;;;12.90;4.47;;;18.80;92.90;;;;;;5094113;28;20494;-72
2023/07/17 08:00:15;;;;;;;12.90;4.32;;;18.90;92.80;;;;;;5075746;28;20048;-71
2023/07/17 08:02:42;;;;;;;10.70;4.47;;;18.90;92.80;;;;;;5094310;28;20044;-72
2023/07/17 08:05:16;;;;;;;11.38;4.47;;;18.90;92.80;;;;;;5093172;28;20043;-71
2023/07/17 08:07:42;;;;;;;11.13;4.38;;;18.90;92.60;;;;;;5073210;28;20105;-71
2023/07/17 08:10:08;;;;;;;9.63;4.10;;;18.90;92.70;;;;;;5093520;28;20526;-72
2023/07/17 08:12:33;;;;;;;11.23;4.60;;;18.90;92.70;;;;;;5093512;28;20043;-72
2023/07/17 08:14:59;;;;;;;12.65;5.03;;;18.90;92.80;;;;;;5092947;28;20166;-72
2023/07/17 08:17:25;;;;;;;10.38;4.20;;;18.90;93.10;;;;;;5092450;28;20036;-72
2023/07/17 08:19:50;;;;;;;11.32;4.13;;;18.90;93.10;;;;;;5092914;28;20036;-72
2023/07/17 08:22:16;;;;;;;14.30;4.60;;;18.90;93.00;;;;;;5093914;28;20043;-72
2023/07/17 08:24:41;;;;;;;12.85;4.50;;;18.90;93.20;;;;;;5092333;28;20134;-72
2023/07/17 08:27:07;;;;;;;11.75;4.45;;;18.80;93.00;;;;;;5075187;28;20547;-72
2023/07/17 08:29:33;;;;;;;11.77;4.57;;;18.90;93.00;;;;;;5092541;28;20046;-72
2023/07/17 08:31:58;;;;;;;11.20;4.07;;;18.80;92.90;;;;;;5092376;28;20486;-71
2023/07/17 08:34:24;;;;;;;12.02;4.30;;;18.90;93.20;;;;;;5093443;28;20093;-72
2023/07/17 08:36:50;;;;;;;8.90;3.53;;;18.90;93.70;;;;;;5093353;28;20043;-71
2023/07/17 08:39:16;;;;;;;10.13;3.90;;;18.90;93.50;;;;;;5092568;28;20050;-72
2023/07/17 08:41:46;;;;;;;13.30;4.50;;;18.90;93.60;;;;;;5092481;28;20134;-72
2023/07/17 08:44:15;;;;;;;13.20;4.38;;;18.90;94.00;;;;;;5091752;28;20734;-72
2023/07/17 08:46:41;;;;;;;12.52;4.25;;;19.00;93.80;;;;;;5092705;28;20427;-72
2023/07/17 08:49:06;;;;;;;14.88;5.15;;;19.00;93.50;;;;;;5092643;28;20048;-72
2023/07/17 08:51:32;;;;;;;11.48;5.00;;;19.10;93.90;;;;;;5093118;28;20093;-72
2023/07/17 08:54:02;;;;;;;14.18;4.95;;;19.20;94.20;;;;;;5091613;28;20044;-72
2023/07/17 08:56:28;;;;;;;15.63;4.63;;;19.20;94.00;;;;;;5073641;28;20088;-72
2023/07/17 08:58:54;;;;;;;17.13;4.90;;;19.30;93.90;;;;;;5092657;28;20130;-71
2023/07/17 09:01:20;;;;;;;13.95;4.90;;;19.20;93.70;;;;;;5091565;28;20513;-72
2023/07/17 09:03:49;;;;;;;13.68;5.30;;;19.20;94.00;;;;;;5090376;28;20094;-72
2023/07/17 09:06:15;;;;;;;12.63;5.05;;;19.10;94.40;;;;;;5092464;28;20054;-71
2023/07/17 09:08:40;;;;;;;12.88;4.88;;;19.10;94.60;;;;;;5071300;28;20049;-71
2023/07/17 09:11:08;;;;;;;16.27;4.95;;;19.10;94.60;;;;;;5089689;28;20157;-72
2023/07/17 09:13:44;;;;;;;14.75;4.25;;;19.10;94.70;;;;;;5091483;28;20065;-72
2023/07/17 09:16:21;;;;;;;12.35;4.47;;;19.10;94.50;;;;;;5092538;28;20044;-72
2023/07/17 09:18:47;;;;;;;12.48;4.20;;;19.10;94.00;;;;;;5092955;28;20385;-72
2023/07/17 09:21:18;;;;;;;10.07;3.30;;;19.20;94.10;;;;;;5091471;28;20051;-72
2023/07/17 09:23:49;;;;;;;8.95;2.97;;;19.20;92.70;;;;;;5074376;28;20160;-72
2023/07/17 09:26:17;;;;;;;11.95;3.50;;;19.20;92.10;;;;;;5091645;28;20048;-71
2023/07/17 09:28:48;;;;;;;8.77;3.22;;;19.20;92.00;;;;;;5091045;28;20058;-72
2023/07/17 09:31:15;;;;;;;13.02;3.22;;;19.20;92.30;;;;;;5092637;28;20070;-71
2023/07/17 09:33:41;;;;;;;9.07;2.67;;;19.40;92.10;;;;;;5071023;28;20049;-72
2023/07/17 09:36:10;;;;;;;13.40;2.88;;;19.40;91.30;;;;;;5078553;28;20039;-71
2023/07/17 09:38:36;;;;;;;11.38;2.63;;;19.50;90.90;;;;;;5092045;28;20044;-72
2023/07/17 09:41:16;;;;;;;9.45;2.40;;;19.60;90.40;;;;;;5092271;28;20055;-74
2023/07/17 09:43:42;;;;;;;6.90;2.25;;;19.60;88.80;;;;;;5091871;28;20039;-74
2023/07/17 09:46:11;;;;;;;10.52;2.50;;;19.70;88.70;;;;;;5092254;28;20036;-75
2023/07/17 09:48:38;;;;;;;8.07;2.90;;;19.70;87.90;;;;;;5073632;28;20060;-74
2023/07/17 09:51:04;;;;;;;9.02;2.25;;;19.80;87.90;;;;;;5091376;28;20044;-74
2023/07/17 09:53:31;;;;;;;7.97;2.60;;;19.80;87.30;;;;;;5092850;28;20048;-73
2023/07/17 09:55:58;;;;;;;10.20;2.20;;;19.90;88.30;;;;;;5093218;28;20083;-74
2023/07/17 09:58:26;;;;;;;9.85;2.67;;;20.00;87.90;;;;;;5081177;28;20044;-74
2023/07/17 10:00:55;;;;;;;7.35;2.30;;;20.10;86.70;;;;;;5076569;28;20048;-73
2023/07/17 10:03:23;;;;;;;6.65;2.30;;;20.10;85.20;;;;;;5078830;28;20048;-74
2023/07/17 10:05:51;;;;;;;6.13;1.92;;;20.10;84.70;;;;;;5072524;28;20153;-74
2023/07/17 10:08:18;;;;;;;7.25;2.45;;;20.10;84.20;;;;;;5071815;28;20094;-73
2023/07/17 10:10:43;;;;;;;8.90;2.50;;;20.10;84.50;;;;;;5086139;28;20051;-73
2023/07/17 10:13:10;;;;;;;8.73;2.58;;;20.10;85.30;;;;;;5088831;28;20444;-74
2023/07/17 10:15:37;;;;;;;9.57;2.80;;;20.20;85.20;;;;;;5087933;28;20040;-74
2023/07/17 10:18:09;;;;;;;8.00;2.40;;;20.20;84.90;;;;;;5080264;28;20041;-74
2023/07/17 10:20:36;;;;;;;8.27;2.78;;;20.10;84.80;;;;;;5090015;28;20375;-73
2023/07/17 10:23:02;;;;;;;7.72;2.60;;;20.10;83.80;;;;;;5091594;28;20084;-74
2023/07/17 10:25:28;;;;;;;6.40;2.30;;;20.10;83.80;;;;;;5093431;28;20643;-74
2023/07/17 10:28:03;;;;;;;5.75;2.10;;;20.10;83.80;;;;;;5090802;28;20056;-74
2023/07/17 10:30:36;;;;;;;8.23;2.45;;;20.10;83.70;;;;;;5076089;28;20072;-74
2023/07/17 10:33:20;;;;;;;7.60;2.40;;;20.20;84.20;;;;;;5094383;28;20147;-74
2023/07/17 10:35:46;;;;;;;;;;;20.20;84.60;;;;;;5091843;28;20040;-73
2023/07/17 10:38:13;;;;;;;6.80;2.30;;;20.30;84.60;;;;;;5087776;28;20339;-74
2023/07/17 10:40:39;;;;;;;6.53;2.30;;;20.40;83.10;;;;;;5089832;28;20040;-74
2023/07/17 10:43:16;;;;;;;9.60;2.40;;;20.40;81.90;;;;;;5095240;28;20039;-74
2023/07/17 10:45:43;;;;;;;8.80;2.35;;;20.50;80.20;;;;;;5076035;28;20040;-73
2023/07/17 10:48:09;;;;;;;11.07;2.63;;;20.50;81.40;;;;;;5094172;28;20048;-74
2023/07/17 10:50:39;;;;;;;15.40;2.67;;;20.60;82.10;;;;;;5081975;28;20074;-74
2023/07/17 10:53:09;;;;;;;7.78;2.50;;;20.60;81.10;;;;;;5062902;28;20508;-74
2023/07/17 10:55:35;;;;;;;9.32;2.50;;;20.60;81.40;;;;;;5075449;28;20087;-74
2023/07/17 10:58:01;;;;;;;8.43;2.35;;;20.60;81.80;;;;;;5094326;28;20044;-74
2023/07/17 11:00:27;;;;;;;11.57;2.67;;;20.60;82.80;;;;;;5088028;28;20063;-73
2023/07/17 11:02:55;;;;;;;8.32;2.65;;;20.60;81.40;;;;;;5093403;28;20044;-74
2023/07/17 11:05:21;;;;;;;9.50;2.35;;;20.70;81.60;;;;;;5068468;28;20049;-74
2023/07/17 11:07:46;;;;;;;8.52;2.60;;;20.60;81.90;;;;;;5082270;28;20046;-74
2023/07/17 11:10:13;;;;;;;13.25;2.70;;;20.70;83.20;;;;;;5079307;28;20123;-75
2023/07/17 11:12:42;;;;;;;7.95;2.58;;;20.80;82.60;;;;;;5086737;28;20119;-75
2023/07/17 11:15:17;;;;;;;9.02;2.88;;;20.80;82.50;;;;;;5093308;28;20058;-75
2023/07/17 11:17:44;;;;;;;8.73;2.45;;;20.90;81.50;;;;;;5068082;28;20435;-75
2023/07/17 11:20:13;;;;;;;5.70;2.20;;;20.90;81.00;;;;;;5079751;28;20416;-74
2023/07/17 11:22:42;;;;;;;8.70;2.60;;;21.10;81.40;;;;;;5094109;28;20040;-75
2023/07/17 11:25:11;;;;;;;9.18;2.30;;;21.10;81.70;;;;;;5081729;28;20052;-75
2023/07/17 11:27:40;;;;;;;11.07;2.40;;;21.20;81.30;;;;;;5092937;28;20424;-75
2023/07/17 11:30:17;;;;;;;13.60;2.70;;;21.30;80.00;;;;;;5058947;28;20521;-75
2023/07/17 11:32:43;;;;;;;7.93;2.20;;;21.30;78.40;;;;;;5074038;28;20052;-74
2023/07/17 11:35:08;;;;;;;9.73;2.20;;;21.30;77.60;;;;;;5081366;28;20036;-74
2023/07/17 11:37:37;;;;;;;8.52;2.05;;;21.40;78.50;;;;;;5076036;28;20455;-74
2023/07/17 11:40:07;;;;;;;10.77;2.47;;;21.30;79.50;;;;;;5089690;28;20036;-75
2023/07/17 11:43:14;;;;;;;12.70;2.63;;;21.30;80.80;;;;;;5091845;28;20039;-73
2023/07/17 11:45:40;;;;;;;5.97;2.22;;;21.20;81.60;;;;;;5089617;28;20458;-73
2023/07/17 11:48:06;;;;;;;8.40;2.65;;;21.20;83.50;;;;;;5093527;28;20135;-72
2023/07/17 11:50:31;;;;;;;7.07;2.30;;;21.10;84.60;;;;;;5094079;28;20131;-73
2023/07/17 11:53:05;;;;;;;7.30;2.20;;;21.00;84.70;;;;;;5072710;28;20044;-73
2023/07/17 11:55:35;;;;;;;8.15;2.33;;;21.00;84.70;;;;;;5082137;28;20061;-73
2023/07/17 11:58:01;;;;;;;7.05;2.30;;;21.00;84.30;;;;;;5081252;28;20048;-73
2023/07/17 12:00:26;;;;;;;10.18;2.50;;;21.10;84.10;;;;;;5075726;28;20113;-73
2023/07/17 12:02:52;;;;;;;6.90;2.17;;;21.10;83.00;;;;;;5089790;28;20036;-74
2023/07/17 12:05:18;;;;;;;9.30;2.40;;;21.20;82.50;;;;;;5083367;28;20052;-73
2023/07/17 12:07:43;;;;;;;12.60;2.53;;;21.20;82.10;;;;;;5087645;28;20039;-73
2023/07/17 12:10:09;;;;;;;9.55;1.98;;;21.30;82.10;;;;;;5087657;28;20044;-73
2023/07/17 12:12:35;;;;;;;11.45;2.40;;;21.30;80.40;;;;;;5075369;28;20051;-73
2023/07/17 12:15:02;;;;;;;9.27;2.33;;;21.30;80.10;;;;;;5091917;28;20051;-73
2023/07/17 12:17:31;;;;;;;10.07;2.13;;;21.40;80.90;;;;;;5083950;28;20049;-73
2023/07/17 12:19:56;;;;;;;5.78;1.90;;;21.40;81.90;;;;;;5093236;28;20127;-73
2023/07/17 12:22:22;;;;;;;6.97;2.08;;;21.40;80.50;;;;;;5085857;28;20116;-73
2023/07/17 12:24:47;;;;;;;9.32;2.22;;;21.40;80.60;;;;;;5086662;28;20440;-73
2023/07/17 12:27:16;;;;;;;5.78;2.00;;;21.50;80.90;;;;;;5087105;28;20086;-73
2023/07/17 12:29:45;;;;;;;8.82;2.10;;;21.50;82.00;;;;;;5053199;28;20062;-73
2023/07/17 12:32:14;;;;;;;6.10;1.80;;;21.50;80.00;;;;;;5071278;28;20044;-73
2023/07/17 12:34:43;;;;;;;7.53;1.85;;;21.50;79.60;;;;;;5071257;28;20052;-73
2023/07/17 12:37:08;;;;;;;6.93;2.17;;;21.50;79.00;;;;;;5093221;28;20502;-73
2023/07/17 12:39:34;;;;;;;5.85;2.17;;;21.50;77.20;;;;;;5089488;28;20071;-73
2023/07/17 12:42:00;;;;;;;7.47;2.00;;;21.40;77.60;;;;;;5073215;28;20044;-74